createdAt,value
2022-10-02T00:00:43.157Z,16.35
2022-10-02T00:01:48.128Z,16.30
2022-10-02T00:02:52.830Z,16.25
2022-10-02T00:03:58.821Z,16.40
2022-10-02T00:05:09.823Z,16.41
2022-10-02T00:06:16.287Z,16.43
2022-10-02T00:07:21.590Z,16.42
2022-10-02T00:08:26.545Z,16.35
2022-10-02T00:09:34.140Z,16.21
2022-10-02T00:10:42.646Z,16.20
2022-10-02T00:11:48.759Z,16.24
2022-10-02T00:12:53.832Z,16.29
2022-10-02T00:13:59.842Z,16.28
2022-10-02T00:15:06.178Z,16.37
2022-10-02T00:16:12.134Z,16.38
2022-10-02T00:17:27.186Z,16.30
2022-10-02T00:18:32.227Z,16.29
2022-10-02T00:19:35.889Z,16.23
2022-10-02T00:20:58.982Z,16.25
2022-10-02T00:23:24.389Z,16.34
2022-10-02T00:24:35.739Z,16.24
2022-10-02T00:25:43.619Z,16.27
2022-10-02T00:26:56.326Z,16.15
2022-10-02T00:28:06.369Z,16.21
2022-10-02T00:29:11.587Z,16.23
2022-10-02T00:30:16.649Z,16.23
2022-10-02T00:31:41.544Z,16.22
2022-10-02T00:32:55.943Z,16.27
2022-10-02T00:34:15.041Z,16.24
2022-10-02T00:35:19.863Z,16.22
2022-10-02T00:36:34.354Z,16.17
2022-10-02T00:37:46.554Z,16.13
2022-10-02T00:38:51.166Z,16.13
2022-10-02T00:39:55.411Z,16.14
2022-10-02T00:41:07.166Z,16.11
2022-10-02T00:42:28.520Z,16.17
2022-10-02T00:43:38.719Z,16.14
2022-10-02T00:45:00.706Z,16.12
2022-10-02T00:46:05.971Z,16.11
2022-10-02T00:47:22.858Z,16.12
2022-10-02T00:48:32.440Z,16.17
2022-10-02T00:49:48.787Z,16.19
2022-10-02T00:51:10.451Z,16.08
2022-10-02T00:52:33.640Z,16.03
2022-10-02T00:53:38.770Z,16.00
2022-10-02T00:54:56.478Z,16.04
2022-10-02T00:56:08.759Z,16.05
2022-10-02T00:57:14.039Z,16.10
2022-10-02T00:58:25.497Z,15.99
2022-10-02T00:59:48.310Z,15.92
2022-10-02T01:00:54.544Z,15.86
2022-10-02T01:02:09.375Z,15.86
2022-10-02T01:03:14.596Z,15.77
2022-10-02T01:04:25.412Z,15.75
2022-10-02T01:05:31.226Z,15.72
2022-10-02T01:06:34.786Z,15.71
2022-10-02T01:07:39.167Z,15.75
2022-10-02T01:08:42.357Z,15.71
2022-10-02T01:09:47.739Z,15.71
2022-10-02T01:10:51.361Z,15.79
2022-10-02T01:11:58.131Z,15.74
2022-10-02T01:13:00.766Z,15.74
2022-10-02T01:14:04.307Z,15.65
2022-10-02T01:15:18.743Z,15.73
2022-10-02T01:16:22.411Z,15.69
2022-10-02T01:17:27.434Z,15.70
2022-10-02T01:18:31.877Z,15.75
2022-10-02T01:19:39.979Z,15.75
2022-10-02T01:20:45.021Z,15.70
2022-10-02T01:21:51.271Z,15.55
2022-10-02T01:23:12.319Z,15.53
2022-10-02T01:24:20.511Z,15.49
2022-10-02T01:25:23.816Z,15.56
2022-10-02T01:26:32.908Z,15.53
2022-10-02T01:27:39.339Z,15.53
2022-10-02T01:28:42.306Z,15.59
2022-10-02T01:29:47.452Z,15.48
2022-10-02T01:30:52.002Z,15.42
2022-10-02T01:31:55.958Z,15.54
2022-10-02T01:33:02.564Z,15.54
2022-10-02T01:34:04.815Z,15.53
2022-10-02T01:35:08.979Z,15.49
2022-10-02T01:36:13.390Z,15.34
2022-10-02T01:37:16.780Z,15.36
2022-10-02T01:38:21.957Z,15.38
2022-10-02T01:39:26.193Z,15.26
2022-10-02T01:40:33.142Z,15.20
2022-10-02T01:41:38.323Z,15.29
2022-10-02T01:42:43.288Z,15.21
2022-10-02T01:43:48.226Z,15.31
2022-10-02T01:44:52.901Z,15.35
2022-10-02T01:46:04.519Z,15.43
2022-10-02T01:47:12.046Z,15.47
2022-10-02T01:48:33.302Z,15.34
2022-10-02T01:49:43.655Z,15.29
2022-10-02T01:50:57.343Z,15.39
2022-10-02T01:52:17.648Z,15.40
2022-10-02T01:53:22.943Z,15.34
2022-10-02T01:54:28.328Z,15.32
2022-10-02T01:55:33.610Z,15.27
2022-10-02T01:56:42.650Z,15.25
2022-10-02T01:57:54.721Z,15.25
2022-10-02T01:59:00.314Z,15.29
2022-10-02T02:00:11.235Z,15.38
2022-10-02T02:01:19.396Z,15.34
2022-10-02T02:02:27.696Z,15.29
2022-10-02T02:03:31.967Z,15.42
2022-10-02T02:04:54.176Z,15.46
2022-10-02T02:05:59.144Z,15.39
2022-10-02T02:07:07.255Z,15.36
2022-10-02T02:08:18.280Z,15.45
2022-10-02T02:09:23.562Z,15.47
2022-10-02T02:10:30.085Z,15.45
2022-10-02T02:11:36.840Z,15.33
2022-10-02T02:12:45.828Z,15.26
2022-10-02T02:13:51.918Z,15.40
2022-10-02T02:15:01.016Z,15.34
2022-10-02T02:16:14.829Z,15.32
2022-10-02T02:17:23.087Z,15.28
2022-10-02T02:18:30.970Z,15.31
2022-10-02T02:19:39.068Z,15.25
2022-10-02T02:20:46.905Z,15.39
2022-10-02T02:21:54.146Z,15.33
2022-10-02T02:24:05.936Z,15.23
2022-10-02T02:25:11.207Z,15.24
2022-10-02T02:26:17.760Z,15.12
2022-10-02T02:27:22.935Z,15.06
2022-10-02T02:28:28.784Z,15.13
2022-10-02T02:29:35.515Z,15.23
2022-10-02T02:30:42.466Z,15.25
2022-10-02T02:31:51.943Z,15.30
2022-10-02T02:32:58.205Z,15.35
2022-10-02T02:34:04.851Z,15.24
2022-10-02T02:35:09.508Z,15.27
2022-10-02T02:36:14.999Z,15.31
2022-10-02T02:37:19.757Z,15.34
2022-10-02T02:38:27.352Z,15.32
2022-10-02T02:39:35.337Z,15.43
2022-10-02T02:40:40.279Z,15.31
2022-10-02T02:41:48.503Z,15.38
2022-10-02T02:42:58.276Z,15.36
2022-10-02T02:44:02.935Z,15.41
2022-10-02T02:45:07.604Z,15.45
2022-10-02T02:46:12.081Z,15.46
2022-10-02T02:47:20.954Z,15.53
2022-10-02T02:48:28.758Z,15.52
2022-10-02T02:49:39.674Z,15.38
2022-10-02T02:50:49.747Z,15.37
2022-10-02T02:51:55.223Z,15.35
2022-10-02T02:53:18.267Z,15.44
2022-10-02T02:54:24.609Z,15.47
2022-10-02T02:55:29.775Z,15.35
2022-10-02T02:56:37.329Z,15.33
2022-10-02T02:57:44.964Z,15.27
2022-10-02T02:58:51.951Z,15.29
2022-10-02T02:59:57.001Z,15.27
2022-10-02T03:00:59.916Z,15.38
2022-10-02T03:02:06.098Z,15.48
2022-10-02T03:03:10.092Z,15.48
2022-10-02T03:04:14.213Z,15.41
2022-10-02T03:05:19.817Z,15.56
2022-10-02T03:06:27.814Z,15.64
2022-10-02T03:07:31.307Z,15.65
2022-10-02T03:08:37.947Z,15.76
2022-10-02T03:09:45.117Z,15.77
2022-10-02T03:10:50.504Z,15.73
2022-10-02T03:12:07.796Z,15.66
2022-10-02T03:13:24.345Z,15.74
2022-10-02T03:14:29.636Z,15.69
2022-10-02T03:15:40.064Z,15.75
2022-10-02T03:17:02.964Z,15.82
2022-10-02T03:18:23.903Z,15.90
2022-10-02T03:19:29.195Z,15.87
2022-10-02T03:20:38.957Z,15.88
2022-10-02T03:22:02.528Z,15.81
2022-10-02T03:23:10.050Z,15.91
2022-10-02T03:24:15.390Z,15.87
2022-10-02T03:25:35.185Z,15.89
2022-10-02T03:26:43.388Z,15.83
2022-10-02T03:27:48.700Z,15.77
2022-10-02T03:28:56.386Z,15.76
2022-10-02T03:30:01.311Z,15.78
2022-10-02T03:31:06.452Z,15.72
2022-10-02T03:32:11.662Z,15.70
2022-10-02T03:33:17.808Z,15.61
2022-10-02T03:34:21.492Z,15.58
2022-10-02T03:35:24.799Z,15.44
2022-10-02T03:36:28.826Z,15.34
2022-10-02T03:37:31.171Z,15.47
2022-10-02T03:38:36.246Z,15.57
2022-10-02T03:39:45.847Z,15.58
2022-10-02T03:40:49.321Z,15.48
2022-10-02T03:41:54.917Z,15.59
2022-10-02T03:42:59.246Z,15.60
2022-10-02T03:44:01.708Z,15.55
2022-10-02T03:45:05.745Z,15.58
2022-10-02T03:46:08.997Z,15.60
2022-10-02T03:47:13.380Z,15.60
2022-10-02T03:48:17.617Z,15.73
2022-10-02T03:49:21.007Z,15.60
2022-10-02T03:50:23.891Z,15.58
2022-10-02T03:51:27.123Z,15.65
2022-10-02T03:52:32.055Z,15.67
2022-10-02T03:55:00.360Z,15.59
2022-10-02T03:56:05.652Z,15.43
2022-10-02T03:57:11.038Z,15.43
2022-10-02T03:58:17.758Z,15.45
2022-10-02T03:59:27.346Z,15.47
2022-10-02T04:00:32.520Z,15.55
2022-10-02T04:01:44.414Z,15.73
2022-10-02T04:03:05.432Z,15.87
2022-10-02T04:04:11.130Z,15.89
2022-10-02T04:05:24.442Z,15.89
2022-10-02T04:06:38.977Z,15.89
2022-10-02T04:07:46.886Z,15.81
2022-10-02T04:08:54.282Z,15.90
2022-10-02T04:10:03.527Z,15.88
2022-10-02T04:11:16.274Z,15.75
2022-10-02T04:12:21.519Z,15.83
2022-10-02T04:13:26.173Z,15.95
2022-10-02T04:14:31.452Z,16.03
2022-10-02T04:15:39.971Z,16.02
2022-10-02T04:16:44.206Z,16.05
2022-10-02T04:18:00.178Z,15.88
2022-10-02T04:19:08.122Z,15.78
2022-10-02T04:20:12.886Z,15.82
2022-10-02T04:21:19.529Z,15.88
2022-10-02T04:23:59.756Z,16.00
2022-10-02T04:25:03.996Z,16.00
2022-10-02T04:26:11.153Z,16.04
2022-10-02T04:27:21.136Z,15.94
2022-10-02T04:28:30.342Z,15.96
2022-10-02T04:29:38.905Z,15.92
2022-10-02T04:30:42.295Z,16.03
2022-10-02T04:31:47.524Z,16.04
2022-10-02T04:32:50.152Z,15.96
2022-10-02T04:33:54.629Z,15.88
2022-10-02T04:35:01.435Z,15.78
2022-10-02T04:36:09.715Z,15.69
2022-10-02T04:37:16.590Z,15.81
2022-10-02T04:38:33.569Z,15.90
2022-10-02T04:39:46.739Z,15.98
2022-10-02T04:41:03.984Z,16.03
2022-10-02T04:42:08.526Z,15.90
2022-10-02T04:43:29.793Z,15.99
2022-10-02T04:44:49.690Z,16.02
2022-10-02T04:45:56.217Z,16.11
2022-10-02T04:47:01.817Z,16.12
2022-10-02T04:48:22.475Z,16.14
2022-10-02T04:49:40.742Z,16.23
2022-10-02T04:50:51.394Z,16.28
2022-10-02T04:51:59.622Z,16.36
2022-10-02T04:53:13.138Z,16.39
2022-10-02T04:54:26.038Z,16.40
2022-10-02T04:55:49.074Z,16.42
2022-10-02T04:56:53.527Z,16.38
2022-10-02T04:58:15.418Z,16.40
2022-10-02T04:59:28.416Z,16.44
2022-10-02T05:00:37.003Z,16.31
2022-10-02T05:01:43.507Z,16.33
2022-10-02T05:02:51.676Z,16.36
2022-10-02T05:04:03.762Z,16.33
2022-10-02T05:05:09.046Z,16.28
2022-10-02T05:06:27.058Z,16.23
2022-10-02T05:07:49.255Z,16.20
2022-10-02T05:09:07.485Z,16.25
2022-10-02T05:10:26.027Z,16.09
2022-10-02T05:11:47.926Z,16.24
2022-10-02T05:12:59.159Z,16.22
2022-10-02T05:14:10.217Z,16.27
2022-10-02T05:15:16.295Z,16.27
2022-10-02T05:16:22.567Z,16.24
2022-10-02T05:17:30.102Z,16.24
2022-10-02T05:18:56.762Z,16.39
2022-10-02T05:20:03.640Z,16.37
2022-10-02T05:21:10.619Z,16.35
2022-10-02T05:22:21.712Z,16.40
2022-10-02T05:23:27.736Z,16.42
2022-10-02T05:24:41.751Z,16.45
2022-10-02T05:25:55.841Z,16.50
2022-10-02T05:27:18.460Z,16.48
2022-10-02T05:28:39.722Z,16.62
2022-10-02T05:29:46.560Z,16.71
2022-10-02T05:30:54.404Z,16.70
2022-10-02T05:31:59.146Z,16.55
2022-10-02T05:33:07.319Z,16.60
2022-10-02T05:34:21.166Z,16.62
2022-10-02T05:35:26.446Z,16.69
2022-10-02T05:36:40.398Z,16.66
2022-10-02T05:37:46.094Z,16.67
2022-10-02T05:39:03.497Z,16.77
2022-10-02T05:40:08.761Z,16.74
2022-10-02T05:41:26.930Z,16.68
2022-10-02T05:42:39.036Z,16.72
2022-10-02T05:44:01.159Z,16.79
2022-10-02T05:45:05.632Z,16.74
2022-10-02T05:46:11.720Z,16.70
2022-10-02T05:47:31.590Z,16.69
2022-10-02T05:48:40.865Z,16.70
2022-10-02T05:50:01.459Z,16.77
2022-10-02T05:51:15.922Z,16.74
2022-10-02T05:52:24.894Z,16.62
2022-10-02T05:53:42.537Z,16.61
2022-10-02T05:54:53.663Z,16.65
2022-10-02T05:56:00.724Z,16.57
2022-10-02T05:57:09.237Z,16.60
2022-10-02T05:58:17.684Z,16.67
2022-10-02T05:59:41.109Z,16.77
2022-10-02T06:00:45.328Z,16.83
2022-10-02T06:01:50.641Z,16.94
2022-10-02T06:03:14.496Z,16.91
2022-10-02T06:04:32.610Z,16.92
2022-10-02T06:05:44.577Z,16.92
2022-10-02T06:06:54.173Z,16.88
2022-10-02T06:07:59.316Z,16.98
2022-10-02T06:09:03.973Z,16.92
2022-10-02T06:10:08.104Z,16.95
2022-10-02T06:11:13.290Z,16.96
2022-10-02T06:12:34.343Z,17.01
2022-10-02T06:13:51.660Z,17.01
2022-10-02T06:14:57.843Z,17.05
2022-10-02T06:16:03.189Z,17.08
2022-10-02T06:17:14.357Z,17.08
2022-10-02T06:18:20.689Z,17.05
2022-10-02T06:19:30.672Z,17.09
2022-10-02T06:20:42.734Z,17.04
2022-10-02T06:21:54.501Z,17.07
2022-10-02T06:23:01.312Z,17.10
2022-10-02T06:24:09.908Z,17.09
2022-10-02T06:25:15.031Z,17.04
2022-10-02T06:26:20.942Z,17.04
2022-10-02T06:27:34.980Z,17.13
2022-10-02T06:28:40.065Z,17.08
2022-10-02T06:29:45.565Z,17.09
2022-10-02T06:30:51.089Z,17.06
2022-10-02T06:31:56.279Z,17.15
2022-10-02T06:33:02.634Z,17.17
2022-10-02T06:34:08.706Z,17.14
2022-10-02T06:35:16.346Z,17.08
2022-10-02T06:36:41.521Z,16.99
2022-10-02T06:37:57.613Z,17.05
2022-10-02T06:39:06.340Z,17.12
2022-10-02T06:40:13.656Z,17.13
2022-10-02T06:41:26.003Z,17.11
2022-10-02T06:42:33.473Z,17.10
2022-10-02T06:43:43.179Z,17.17
2022-10-02T06:45:07.014Z,17.25
2022-10-02T06:46:15.364Z,17.25
2022-10-02T06:47:33.675Z,17.33
2022-10-02T06:48:50.743Z,17.37
2022-10-02T06:50:05.562Z,17.29
2022-10-02T06:51:18.318Z,17.29
2022-10-02T06:52:38.253Z,17.33
2022-10-02T06:53:50.536Z,17.34
2022-10-02T06:55:08.996Z,17.41
2022-10-02T06:56:15.800Z,17.40
2022-10-02T06:57:22.116Z,17.40
2022-10-02T06:58:33.359Z,17.39
2022-10-02T06:59:55.874Z,17.34
2022-10-02T07:01:13.311Z,17.24
2022-10-02T07:02:18.153Z,17.33
2022-10-02T07:03:31.027Z,17.41
2022-10-02T07:04:36.537Z,17.32
2022-10-02T07:05:56.002Z,17.33
2022-10-02T07:07:04.103Z,17.39
2022-10-02T07:08:12.003Z,17.43
2022-10-02T07:09:22.398Z,17.33
2022-10-02T07:10:33.641Z,17.25
2022-10-02T07:11:56.257Z,17.30
2022-10-02T07:13:13.864Z,17.30
2022-10-02T07:14:20.293Z,17.21
2022-10-02T07:15:30.161Z,16.96
2022-10-02T07:16:50.237Z,17.05
2022-10-02T07:17:58.072Z,17.06
2022-10-02T07:19:06.641Z,16.98
2022-10-02T07:20:13.750Z,17.04
2022-10-02T07:21:22.895Z,17.16
2022-10-02T07:22:45.929Z,17.32
2022-10-02T07:24:08.225Z,17.19
2022-10-02T07:25:16.013Z,17.24
2022-10-02T07:26:22.337Z,17.04
2022-10-02T07:27:43.808Z,17.14
2022-10-02T07:29:06.638Z,17.21
2022-10-02T07:30:12.555Z,17.09
2022-10-02T07:31:27.146Z,17.09
2022-10-02T07:32:31.471Z,16.94
2022-10-02T07:33:39.538Z,16.71
2022-10-02T07:34:54.422Z,16.80
2022-10-02T07:36:02.806Z,16.84
2022-10-02T07:37:13.471Z,16.89
2022-10-02T07:38:32.123Z,16.76
2022-10-02T07:39:51.096Z,16.69
2022-10-02T07:40:59.814Z,16.64
2022-10-02T07:42:11.892Z,16.58
2022-10-02T07:43:16.745Z,16.56
2022-10-02T07:44:23.395Z,16.43
2022-10-02T07:45:33.392Z,16.31
2022-10-02T07:46:39.732Z,16.14
2022-10-02T07:47:46.853Z,16.19
2022-10-02T07:48:55.598Z,16.37
2022-10-02T07:50:14.322Z,16.35
2022-10-02T07:51:48.562Z,16.28
2022-10-02T07:53:03.030Z,16.44
2022-10-02T07:54:26.054Z,16.42
2022-10-02T07:55:29.674Z,16.49
2022-10-02T07:56:36.089Z,16.56
2022-10-02T07:57:48.932Z,16.75
2022-10-02T07:59:00.130Z,16.71
2022-10-02T08:00:06.312Z,16.65
2022-10-02T08:01:14.241Z,16.65
2022-10-02T08:02:33.480Z,16.68
2022-10-02T08:03:49.214Z,16.56
2022-10-02T08:04:54.313Z,16.72
2022-10-02T08:05:59.803Z,16.44
2022-10-02T08:07:05.411Z,16.48
2022-10-02T08:08:19.672Z,16.47
2022-10-02T08:09:31.113Z,16.49
2022-10-02T08:10:39.426Z,16.59
2022-10-02T08:11:49.649Z,16.85
2022-10-02T08:12:55.406Z,16.95
2022-10-02T08:14:05.274Z,17.10
2022-10-02T08:15:11.199Z,17.11
2022-10-02T08:16:17.287Z,17.13
2022-10-02T08:17:35.746Z,17.29
2022-10-02T08:18:47.725Z,17.08
2022-10-02T08:19:52.026Z,16.95
2022-10-02T08:21:00.154Z,16.87
2022-10-02T08:22:10.562Z,16.97
2022-10-02T08:23:21.378Z,17.32
2022-10-02T08:24:25.538Z,17.90
2022-10-02T08:25:47.397Z,18.23
2022-10-02T08:26:53.305Z,18.34
2022-10-02T08:28:00.294Z,18.04
2022-10-02T08:29:09.981Z,18.34
2022-10-02T08:30:13.734Z,17.97
2022-10-02T08:31:17.069Z,18.04
2022-10-02T08:32:23.979Z,18.14
2022-10-02T08:33:32.024Z,18.02
2022-10-02T08:34:35.388Z,17.94
2022-10-02T08:35:55.384Z,17.98
2022-10-02T08:37:01.607Z,18.03
2022-10-02T08:38:20.473Z,18.33
2022-10-02T08:39:28.461Z,18.24
2022-10-02T08:40:42.421Z,17.57
2022-10-02T08:41:53.447Z,17.66
2022-10-02T08:43:10.751Z,17.57
2022-10-02T08:44:18.306Z,17.77
2022-10-02T08:45:24.906Z,17.95
2022-10-02T08:46:44.130Z,17.96
2022-10-02T08:47:49.412Z,18.20
2022-10-02T08:49:04.510Z,18.47
2022-10-02T08:50:09.566Z,18.70
2022-10-02T08:51:32.501Z,18.43
2022-10-02T08:52:43.629Z,18.31
2022-10-02T08:53:51.940Z,18.00
2022-10-02T08:55:14.662Z,18.20
2022-10-02T08:56:31.759Z,18.53
2022-10-02T08:57:37.037Z,18.37
2022-10-02T08:58:43.037Z,18.51
2022-10-02T09:00:06.074Z,18.35
2022-10-02T09:01:27.734Z,18.52
2022-10-02T09:02:41.818Z,18.79
2022-10-02T09:04:01.816Z,18.98
2022-10-02T09:05:25.480Z,19.36
2022-10-02T09:06:43.796Z,19.53
2022-10-02T09:07:59.631Z,19.60
2022-10-02T09:09:21.362Z,19.55
2022-10-02T09:10:29.438Z,19.44
2022-10-02T09:13:11.852Z,19.22
2022-10-02T09:14:24.280Z,19.14
2022-10-02T09:15:32.223Z,19.17
2022-10-02T09:16:51.031Z,18.96
2022-10-02T09:18:12.953Z,18.93
2022-10-02T09:19:35.600Z,18.63
2022-10-02T09:20:44.841Z,18.56
2022-10-02T09:21:50.026Z,18.34
2022-10-02T09:23:06.691Z,18.38
2022-10-02T09:24:17.184Z,18.52
2022-10-02T09:25:27.291Z,18.63
2022-10-02T09:26:37.777Z,18.43
2022-10-02T09:27:45.079Z,18.48
2022-10-02T09:30:17.251Z,18.16
2022-10-02T09:31:32.454Z,18.30
2022-10-02T09:32:39.270Z,18.19
2022-10-02T09:33:45.605Z,18.17
2022-10-02T09:34:52.661Z,18.33
2022-10-02T09:36:02.642Z,18.40
2022-10-02T09:37:08.329Z,18.41
2022-10-02T09:38:20.620Z,18.40
2022-10-02T09:39:37.496Z,18.39
2022-10-02T09:40:58.328Z,18.50
2022-10-02T09:42:10.034Z,18.22
2022-10-02T09:43:31.663Z,18.23
2022-10-02T09:44:35.788Z,18.00
2022-10-02T09:45:49.871Z,18.01
2022-10-02T09:47:12.891Z,18.16
2022-10-02T09:48:40.616Z,17.96
2022-10-02T09:50:00.206Z,17.72
2022-10-02T09:51:26.174Z,17.84
2022-10-02T09:52:40.616Z,18.07
2022-10-02T09:53:55.750Z,18.17
2022-10-02T09:55:09.688Z,18.03
2022-10-02T09:56:17.110Z,18.01
2022-10-02T09:57:33.431Z,18.01
2022-10-02T09:58:44.752Z,17.91
2022-10-02T10:00:06.743Z,17.99
2022-10-02T10:01:20.279Z,18.06
2022-10-02T10:02:43.431Z,17.95
2022-10-02T10:03:51.381Z,17.85
2022-10-02T10:05:08.448Z,17.80
2022-10-02T10:06:29.037Z,17.97
2022-10-02T10:07:42.035Z,17.85
2022-10-02T10:08:51.302Z,17.88
2022-10-02T10:10:03.783Z,17.83
2022-10-02T10:11:13.034Z,18.05
2022-10-02T10:12:33.703Z,18.03
2022-10-02T10:13:51.376Z,18.11
2022-10-02T10:14:58.120Z,18.01
2022-10-02T10:16:12.745Z,17.87
2022-10-02T10:17:24.444Z,17.96
2022-10-02T10:18:29.576Z,17.88
2022-10-02T10:19:34.177Z,17.73
2022-10-02T10:20:56.381Z,17.57
2022-10-02T10:22:18.673Z,17.48
2022-10-02T10:23:24.616Z,17.52
2022-10-02T10:24:37.069Z,17.52
2022-10-02T10:26:01.033Z,17.67
2022-10-02T10:27:08.438Z,17.64
2022-10-02T10:28:30.025Z,17.64
2022-10-02T10:29:54.847Z,17.65
2022-10-02T10:31:02.914Z,17.79
2022-10-02T10:32:23.967Z,17.82
2022-10-02T10:33:28.931Z,17.99
2022-10-02T10:34:37.452Z,18.18
2022-10-02T10:35:44.497Z,18.20
2022-10-02T10:37:07.023Z,18.21
2022-10-02T10:38:31.208Z,18.37
2022-10-02T10:39:42.119Z,18.64
2022-10-02T10:40:47.411Z,18.75
2022-10-02T10:41:57.599Z,18.67
2022-10-02T10:43:08.727Z,18.93
2022-10-02T10:44:23.696Z,18.95
2022-10-02T10:45:29.440Z,18.95
2022-10-02T10:46:33.554Z,19.10
2022-10-02T10:47:41.967Z,19.13
2022-10-02T10:48:49.503Z,19.26
2022-10-02T10:49:57.453Z,19.14
2022-10-02T10:51:04.692Z,18.58
2022-10-02T10:52:21.879Z,18.25
2022-10-02T10:53:30.454Z,18.37
2022-10-02T10:54:40.170Z,18.39
2022-10-02T10:55:52.451Z,18.45
2022-10-02T10:56:58.784Z,18.40
2022-10-02T10:58:10.227Z,18.42
2022-10-02T10:59:35.144Z,18.33
2022-10-02T11:00:49.792Z,18.40
2022-10-02T11:02:12.711Z,18.48
2022-10-02T11:03:34.695Z,18.32
2022-10-02T11:04:39.898Z,18.40
2022-10-02T11:05:54.197Z,18.30
2022-10-02T11:06:59.321Z,18.29
2022-10-02T11:08:22.633Z,17.99
2022-10-02T11:09:33.669Z,18.08
2022-10-02T11:10:56.453Z,17.75
2022-10-02T11:12:06.338Z,17.65
2022-10-02T11:13:15.854Z,17.17
2022-10-02T11:14:35.847Z,16.79
2022-10-02T11:15:49.910Z,16.72
2022-10-02T11:17:13.669Z,16.62
2022-10-02T11:18:23.866Z,16.31
2022-10-02T11:19:29.974Z,16.23
2022-10-02T11:20:42.149Z,16.23
2022-10-02T11:21:56.143Z,16.17
2022-10-02T11:23:04.310Z,16.26
2022-10-02T11:24:25.059Z,16.15
2022-10-02T11:25:40.140Z,16.13
2022-10-02T11:26:51.940Z,16.08
2022-10-02T11:27:58.942Z,16.17
2022-10-02T11:29:18.904Z,15.97
2022-10-02T11:30:26.738Z,15.84
2022-10-02T11:31:37.776Z,15.86
2022-10-02T11:32:48.847Z,15.60
2022-10-02T11:34:04.679Z,15.49
2022-10-02T11:35:15.492Z,15.48
2022-10-02T11:36:19.758Z,15.56
2022-10-02T11:37:26.912Z,15.73
2022-10-02T11:38:48.160Z,15.67
2022-10-02T11:40:09.751Z,15.52
2022-10-02T11:41:28.891Z,15.63
2022-10-02T11:42:47.066Z,15.49
2022-10-02T11:45:25.878Z,15.31
2022-10-02T11:46:33.178Z,15.37
2022-10-02T11:47:49.295Z,15.66
2022-10-02T11:48:57.839Z,15.66
2022-10-02T11:50:18.893Z,15.74
2022-10-02T11:51:25.403Z,15.80
2022-10-02T11:52:50.755Z,15.58
2022-10-02T11:53:56.144Z,15.47
2022-10-02T11:55:00.696Z,15.41
2022-10-02T11:56:13.078Z,15.60
2022-10-02T11:58:48.381Z,15.60
2022-10-02T12:00:10.178Z,15.35
2022-10-02T12:01:31.851Z,15.19
2022-10-02T12:02:42.973Z,15.26
2022-10-02T12:03:54.531Z,15.21
2022-10-02T12:05:15.271Z,15.04
2022-10-02T12:06:20.323Z,15.30
2022-10-02T12:07:36.697Z,15.49
2022-10-02T12:08:43.647Z,15.35
2022-10-02T12:10:09.910Z,15.43
2022-10-02T12:11:14.668Z,15.26
2022-10-02T12:12:19.323Z,15.15
2022-10-02T12:13:38.705Z,15.24
2022-10-02T12:14:42.733Z,15.19
2022-10-02T12:15:59.618Z,15.06
2022-10-02T12:17:20.772Z,14.95
2022-10-02T12:18:25.311Z,14.91
2022-10-02T12:19:32.788Z,14.85
2022-10-02T12:21:07.833Z,14.94
2022-10-02T12:22:35.676Z,14.98
2022-10-02T12:24:08.225Z,14.87
2022-10-02T12:25:37.950Z,15.02
2022-10-02T12:27:06.903Z,14.86
2022-10-02T12:28:12.482Z,14.93
2022-10-02T12:29:37.440Z,14.77
2022-10-02T12:30:41.699Z,14.94
2022-10-02T12:32:05.037Z,14.67
2022-10-02T12:33:19.393Z,14.73
2022-10-02T12:34:33.762Z,14.88
2022-10-02T12:35:38.949Z,14.91
2022-10-02T12:36:57.943Z,14.72
2022-10-02T12:38:06.953Z,14.73
2022-10-02T12:39:12.863Z,14.66
2022-10-02T12:40:20.532Z,14.90
2022-10-02T12:41:32.364Z,15.00
2022-10-02T12:42:37.579Z,14.99
2022-10-02T12:44:00.304Z,15.06
2022-10-02T12:45:17.689Z,14.86
2022-10-02T12:46:38.638Z,15.20
2022-10-02T12:47:50.706Z,15.01
2022-10-02T12:48:58.922Z,14.83
2022-10-02T12:50:09.354Z,14.77
2022-10-02T12:51:23.678Z,14.69
2022-10-02T12:52:47.911Z,14.69
2022-10-02T12:53:54.045Z,14.71
2022-10-02T12:55:12.207Z,14.56
2022-10-02T12:56:33.384Z,14.63
2022-10-02T12:57:52.655Z,14.56
2022-10-02T12:59:04.831Z,14.57
2022-10-02T13:00:13.338Z,14.54
2022-10-02T13:01:37.535Z,14.41
2022-10-02T13:03:01.973Z,14.48
2022-10-02T13:04:09.299Z,14.61
2022-10-02T13:05:17.702Z,14.70
2022-10-02T13:06:40.021Z,14.67
2022-10-02T13:07:45.302Z,14.60
2022-10-02T13:08:49.634Z,14.59
2022-10-02T13:10:04.427Z,14.66
2022-10-02T13:11:14.511Z,14.73
2022-10-02T13:12:33.370Z,14.92
2022-10-02T13:13:54.735Z,15.15
2022-10-02T13:15:17.461Z,15.17
2022-10-02T13:16:32.011Z,15.03
2022-10-02T13:17:40.448Z,15.35
2022-10-02T13:18:48.125Z,15.27
2022-10-02T13:19:55.116Z,15.28
2022-10-02T13:21:01.424Z,15.20
2022-10-02T13:22:13.474Z,15.21
2022-10-02T13:23:19.790Z,15.19
2022-10-02T13:24:30.820Z,14.98
2022-10-02T13:25:57.522Z,15.01
2022-10-02T13:27:12.306Z,15.09
2022-10-02T13:28:19.157Z,14.52
2022-10-02T13:29:28.403Z,14.58
2022-10-02T13:30:33.190Z,14.60
2022-10-02T13:31:41.892Z,14.91
2022-10-02T13:32:48.318Z,14.99
2022-10-02T13:33:56.839Z,14.99
2022-10-02T13:35:16.846Z,14.80
2022-10-02T13:36:21.082Z,14.71
2022-10-02T13:37:33.465Z,14.59
2022-10-02T13:38:44.805Z,14.44
2022-10-02T13:40:07.505Z,14.43
2022-10-02T13:41:21.896Z,14.34
2022-10-02T13:42:45.860Z,14.24
2022-10-02T13:43:58.294Z,14.20
2022-10-02T13:45:19.546Z,14.23
2022-10-02T13:46:39.722Z,14.35
2022-10-02T13:47:47.685Z,14.19
2022-10-02T13:49:10.483Z,14.11
2022-10-02T13:50:17.779Z,14.09
2022-10-02T13:51:27.909Z,14.11
2022-10-02T13:52:39.199Z,14.03
2022-10-02T13:55:19.390Z,14.04
2022-10-02T13:56:30.394Z,14.05
2022-10-02T13:57:42.450Z,14.21
2022-10-02T13:59:05.288Z,14.14
2022-10-02T14:00:11.149Z,14.18
2022-10-02T14:01:23.204Z,14.26
2022-10-02T14:02:29.165Z,14.08
2022-10-02T14:03:34.508Z,14.41
2022-10-02T14:04:41.259Z,14.25
2022-10-02T14:05:47.411Z,14.32
2022-10-02T14:07:04.907Z,14.40
2022-10-02T14:08:09.979Z,14.58
2022-10-02T14:09:19.021Z,14.28
2022-10-02T14:10:27.071Z,14.24
2022-10-02T14:11:49.857Z,14.37
2022-10-02T14:13:12.159Z,14.46
2022-10-02T14:14:33.829Z,14.35
2022-10-02T14:15:39.110Z,14.21
2022-10-02T14:16:46.954Z,13.95
2022-10-02T14:18:15.864Z,13.97
2022-10-02T14:19:39.366Z,13.83
2022-10-02T14:20:44.533Z,13.79
2022-10-02T14:21:52.098Z,13.70
2022-10-02T14:23:14.193Z,13.74
2022-10-02T14:24:27.098Z,13.79
2022-10-02T14:25:32.274Z,13.59
2022-10-02T14:26:46.328Z,13.76
2022-10-02T14:27:57.923Z,13.64
2022-10-02T14:29:12.140Z,13.59
2022-10-02T14:30:26.519Z,13.58
2022-10-02T14:31:32.881Z,13.60
2022-10-02T14:32:40.920Z,13.57
2022-10-02T14:33:46.436Z,13.44
2022-10-02T14:34:54.210Z,13.30
2022-10-02T14:36:07.642Z,13.50
2022-10-02T14:37:31.730Z,13.51
2022-10-02T14:38:38.787Z,13.56
2022-10-02T14:39:43.274Z,13.59
2022-10-02T14:40:48.818Z,13.69
2022-10-02T14:41:55.037Z,13.58
2022-10-02T14:43:00.325Z,13.60
2022-10-02T14:44:07.575Z,13.60
2022-10-02T14:45:12.876Z,13.49
2022-10-02T14:46:18.050Z,13.58
2022-10-02T14:47:36.484Z,13.41
2022-10-02T14:48:44.068Z,13.49
2022-10-02T14:50:07.970Z,13.60
2022-10-02T14:51:18.137Z,13.49
2022-10-02T14:52:39.375Z,13.37
2022-10-02T14:53:45.392Z,13.23
2022-10-02T14:54:51.936Z,12.86
2022-10-02T14:56:12.980Z,12.89
2022-10-02T14:57:32.787Z,12.72
2022-10-02T14:58:40.459Z,12.77
2022-10-02T14:59:45.754Z,12.79
2022-10-02T15:00:51.806Z,12.69
2022-10-02T15:01:57.002Z,12.92
2022-10-02T15:03:11.307Z,12.93
2022-10-02T15:04:23.462Z,13.01
2022-10-02T15:05:32.312Z,12.96
2022-10-02T15:06:37.624Z,12.91
2022-10-02T15:07:41.203Z,12.89
2022-10-02T15:08:46.297Z,12.91
2022-10-02T15:09:52.913Z,12.88
2022-10-02T15:10:57.452Z,12.61
2022-10-02T15:12:09.631Z,12.42
2022-10-02T15:13:14.974Z,12.22
2022-10-02T15:14:26.244Z,12.33
2022-10-02T15:15:48.797Z,12.36
2022-10-02T15:17:27.263Z,12.45
2022-10-02T15:18:35.459Z,12.20
2022-10-02T15:19:41.274Z,12.26
2022-10-02T15:21:02.952Z,11.96
2022-10-02T15:22:07.605Z,12.00
2022-10-02T15:23:17.785Z,11.76
2022-10-02T15:24:23.599Z,11.59
2022-10-02T15:25:30.865Z,11.53
2022-10-02T15:28:31.248Z,11.72
2022-10-02T15:29:22.990Z,11.60
2022-10-02T15:30:27.001Z,11.42